Time;durP1;ratioP1;P1;durP2;ratioP2;P2;SDS_P1;SDS_P2;PMS_P1;PMS_P2;Temp;Humidity;BMP_temperature;BMP_pressure;BME280_temperature;BME280_humidity;BME280_pressure;Samples;Min_cycle;Max_cycle;Signal;HPM_P1;HPM_P2
2022/12/15 00:39:57;;;;;;;34.83;12.60;;;-10.50;99.90;;;;;;5082392;28;20687;-56
2022/12/15 00:42:24;;;;;;;45.87;17.87;;;-10.50;99.90;;;;;;5086590;28;20025;-56
2022/12/15 00:44:50;;;;;;;37.13;15.37;;;-10.60;99.90;;;;;;5095681;28;20039;-53
2022/12/15 00:47:15;;;;;;;40.90;15.10;;;-10.60;99.90;;;;;;5086991;28;20031;-56
2022/12/15 01:22:40;;;;;;;31.70;13.97;;;-10.80;99.90;;;;;;5082576;28;20082;-60
2022/12/15 01:25:07;;;;;;;27.27;12.57;;;-10.80;99.90;;;;;;5099765;28;20072;-59
2022/12/15 01:27:33;;;;;;;42.30;14.90;;;-10.80;99.90;;;;;;5078759;28;20048;-58
2022/12/15 01:29:59;;;;;;;33.63;13.00;;;-10.90;99.90;;;;;;5088043;28;20031;-59
2022/12/15 01:32:25;;;;;;;30.40;15.20;;;-10.90;99.90;;;;;;5084761;28;20196;-58
2022/12/15 01:34:50;;;;;;;32.53;14.07;;;-10.90;99.90;;;;;;5093067;28;20147;-58
2022/12/15 01:37:16;;;;;;;40.97;14.67;;;-10.90;99.90;;;;;;5087967;28;20059;-60
2022/12/15 01:42:25;;;;;;;47.37;15.03;;;-10.90;99.90;;;;;;5078097;28;20438;-59
2022/12/15 01:44:53;;;;;;;26.00;11.23;;;-10.90;99.90;;;;;;5105180;28;20114;-59
2022/12/15 01:47:22;;;;;;;35.07;12.40;;;-10.90;99.90;;;;;;5086129;28;20049;-59
2022/12/15 01:49:48;;;;;;;36.27;14.60;;;-11.00;99.90;;;;;;5106583;28;20084;-59
2022/12/15 01:52:15;;;;;;;42.90;15.57;;;-11.00;99.90;;;;;;5087402;28;20089;-60
2022/12/15 01:54:54;;;;;;;34.30;15.43;;;-11.00;99.90;;;;;;5105982;28;20053;-59
2022/12/15 01:57:27;;;;;;;35.47;13.70;;;-11.00;99.90;;;;;;5068288;28;20048;-59
2022/12/15 01:59:56;;;;;;;37.60;15.43;;;-11.00;99.90;;;;;;5086750;28;20043;-59
2022/12/15 02:02:25;;;;;;;37.37;17.17;;;-11.00;99.90;;;;;;5088345;28;20032;-60
2022/12/15 02:04:55;;;;;;;35.30;14.70;;;-11.00;99.90;;;;;;5100375;28;20035;-55
2022/12/15 02:07:21;;;;;;;26.50;12.63;;;-11.00;99.90;;;;;;5088523;28;20028;-59
2022/12/15 02:09:49;;;;;;;34.73;14.07;;;-11.00;99.90;;;;;;5106153;28;20035;-58
2022/12/15 02:12:39;;;;;;;39.70;13.83;;;-11.00;99.90;;;;;;5088626;28;20067;-59
2022/12/15 02:15:25;;;;;;;44.27;16.00;;;-11.10;99.90;;;;;;5090895;28;20028;-59
2022/12/15 02:18:16;;;;;;;47.27;19.77;;;-11.10;99.90;;;;;;5072261;28;20037;-58
2022/12/15 02:20:50;;;;;;;37.03;16.07;;;-11.10;99.90;;;;;;5093946;28;20040;-57
2022/12/15 02:23:25;;;;;;;37.13;14.40;;;-11.10;99.90;;;;;;5072108;28;20056;-59
2022/12/15 02:26:10;;;;;;;39.27;15.57;;;-11.10;99.90;;;;;;5091832;28;20325;-59
2022/12/15 02:29:06;;;;;;;24.58;10.23;;;-11.10;99.90;;;;;;5072107;28;20029;-59
2022/12/15 02:31:49;;;;;;;44.10;16.17;;;-11.10;99.90;;;;;;5071855;28;20074;-59
2022/12/15 02:34:37;;;;;;;34.10;13.70;;;-11.10;99.90;;;;;;5079800;28;20020;-59
2022/12/15 02:37:10;;;;;;;30.30;12.43;;;-11.10;99.90;;;;;;5112499;28;20034;-59
2022/12/15 02:39:36;;;;;;;33.43;14.23;;;-11.10;99.90;;;;;;5085700;28;20582;-59
2022/12/15 02:42:01;;;;;;;38.17;13.83;;;-11.20;99.90;;;;;;5092352;28;20039;-59
2022/12/15 02:44:37;;;;;;;35.33;14.50;;;-11.20;99.90;;;;;;5109783;28;20028;-58
2022/12/15 02:47:23;;;;;;;38.88;14.32;;;-11.20;99.90;;;;;;5111131;28;20019;-58
2022/12/15 02:50:18;;;;;;;32.57;12.97;;;-11.20;99.90;;;;;;5089112;28;20033;-57
2022/12/15 02:53:17;;;;;;;24.33;10.90;;;-11.20;99.90;;;;;;5071716;28;20028;-58
2022/12/15 02:56:04;;;;;;;35.00;15.37;;;-11.30;99.90;;;;;;5086826;28;20032;-57
2022/12/15 02:59:04;;;;;;;36.63;14.37;;;-11.30;99.90;;;;;;5071362;28;20036;-60
2022/12/15 03:01:54;;;;;;;35.63;14.50;;;-11.20;99.90;;;;;;5071287;28;20029;-59
2022/12/15 03:04:20;;;;;;;28.67;11.90;;;-11.20;99.90;;;;;;5080557;28;20028;-59
2022/12/15 03:06:54;;;;;;;33.63;14.90;;;-11.20;99.90;;;;;;5105396;28;20080;-58
2022/12/15 03:09:20;;;;;;;32.57;13.03;;;-11.10;99.90;;;;;;5080537;28;20027;-60
2022/12/15 03:11:45;;;;;;;39.13;14.77;;;-11.00;99.90;;;;;;5112016;28;20121;-59
2022/12/15 03:14:11;;;;;;;32.07;14.37;;;-10.90;99.90;;;;;;5094461;28;20042;-59
2022/12/15 03:16:36;;;;;;;28.23;13.20;;;-10.80;99.90;;;;;;5111518;28;20479;-57
2022/12/15 03:19:02;;;;;;;23.73;11.47;;;-10.80;99.90;;;;;;5093100;28;20144;-60
2022/12/15 03:21:27;;;;;;;32.33;13.40;;;-10.70;99.90;;;;;;5111604;28;20030;-58
2022/12/15 03:23:52;;;;;;;34.07;14.37;;;-10.60;99.90;;;;;;5091625;28;20045;-58
2022/12/15 03:26:18;;;;;;;33.30;16.23;;;-10.50;99.90;;;;;;5110861;28;20066;-59
2022/12/15 03:28:44;;;;;;;34.30;13.77;;;-10.40;99.90;;;;;;5089950;28;20109;-58
2022/12/15 03:31:09;;;;;;;42.03;16.47;;;-10.30;99.90;;;;;;5111653;28;20034;-59
2022/12/15 03:33:35;;;;;;;34.87;15.20;;;-10.20;99.90;;;;;;5091424;28;20218;-59
2022/12/15 03:36:00;;;;;;;35.43;15.03;;;-10.10;99.90;;;;;;5108954;28;20035;-59
2022/12/15 03:38:26;;;;;;;31.20;13.77;;;-10.00;99.90;;;;;;5091498;28;20143;-58
2022/12/15 03:40:51;;;;;;;29.00;12.73;;;-9.90;99.90;;;;;;5090519;28;20036;-58
2022/12/15 03:43:16;;;;;;;39.20;16.97;;;-9.80;99.90;;;;;;5110743;28;20038;-59
2022/12/15 03:45:42;;;;;;;44.73;16.17;;;-9.80;99.90;;;;;;5089675;28;20086;-58
2022/12/15 03:48:07;;;;;;;34.30;16.00;;;-9.70;99.90;;;;;;5110668;28;20032;-58
2022/12/15 03:50:33;;;;;;;53.93;18.97;;;-9.60;99.90;;;;;;5088082;28;20500;-58
2022/12/15 03:53:01;;;;;;;46.20;17.77;;;-9.60;99.90;;;;;;5110703;28;20032;-59
2022/12/15 03:55:30;;;;;;;38.87;15.37;;;-9.50;99.90;;;;;;5089012;28;20057;-58
2022/12/15 03:57:56;;;;;;;37.87;17.43;;;-9.50;99.90;;;;;;5110601;28;20449;-58
2022/12/15 04:00:23;;;;;;;43.90;17.10;;;-9.40;99.90;;;;;;5089250;28;20040;-58
2022/12/15 04:02:49;;;;;;;44.07;17.60;;;-9.40;99.90;;;;;;5070409;28;20151;-58
2022/12/15 04:05:19;;;;;;;53.27;19.37;;;-9.30;99.90;;;;;;5095912;28;20093;-58
2022/12/15 04:07:44;;;;;;;50.07;19.33;;;-9.30;99.90;;;;;;5108578;28;20035;-58
2022/12/15 04:10:11;;;;;;;66.70;21.33;;;-9.30;99.90;;;;;;5090734;28;20040;-59
2022/12/15 04:12:38;;;;;;;64.03;23.43;;;-9.30;99.90;;;;;;5088450;28;20490;-59
2022/12/15 04:15:06;;;;;;;54.10;18.97;;;-9.20;99.90;;;;;;5110395;28;20507;-58
2022/12/15 04:17:31;;;;;;;52.70;20.50;;;-9.20;99.90;;;;;;5086479;28;20024;-57
2022/12/15 04:20:09;;;;;;;74.33;25.13;;;-9.20;99.90;;;;;;5110236;28;20502;-59
2022/12/15 04:22:39;;;;;;;57.73;20.43;;;-9.10;99.90;;;;;;5092905;28;20171;-58
2022/12/15 05:33:41;;;;;;;69.20;21.03;;;-8.00;99.90;;;;;;5068727;28;20038;-61
2022/12/15 05:36:07;;;;;;;70.37;21.57;;;-8.00;99.90;;;;;;5090681;28;20112;-61
2022/12/15 05:38:33;;;;;;;72.47;24.50;;;-8.00;99.90;;;;;;5107316;28;20467;-61
2022/12/15 05:40:59;;;;;;;57.30;20.00;;;-7.90;99.90;;;;;;5088030;28;20047;-61
2022/12/15 05:43:25;;;;;;;65.27;21.97;;;-7.90;99.90;;;;;;5108636;28;20402;-61
2022/12/15 05:45:50;;;;;;;82.63;25.03;;;-7.80;99.90;;;;;;5087549;28;20028;-61
2022/12/15 05:48:16;;;;;;;66.17;22.90;;;-7.80;99.90;;;;;;5108662;28;20047;-61
2022/12/15 05:50:41;;;;;;;62.57;19.23;;;-7.80;99.90;;;;;;5097687;28;20038;-61
2022/12/15 05:53:07;;;;;;;66.87;23.53;;;-7.70;99.90;;;;;;5089452;28;20085;-61
2022/12/15 05:55:32;;;;;;;78.73;30.00;;;-7.70;99.90;;;;;;5090464;28;20048;-61
2022/12/15 05:57:58;;;;;;;79.50;28.93;;;-7.60;99.90;;;;;;5108679;28;20118;-61
2022/12/15 06:00:23;;;;;;;82.73;29.93;;;-7.60;99.90;;;;;;5087511;28;20393;-60
2022/12/15 06:02:49;;;;;;;94.03;34.37;;;-7.60;99.90;;;;;;5108517;28;20047;-62
2022/12/15 06:05:14;;;;;;;79.97;30.33;;;-7.60;99.90;;;;;;5092962;28;20551;-61
2022/12/15 06:07:40;;;;;;;79.73;29.27;;;-7.60;99.90;;;;;;5089317;28;20028;-61
2022/12/15 06:10:06;;;;;;;82.20;28.67;;;-7.60;99.90;;;;;;5106520;28;20035;-60
2022/12/15 06:12:31;;;;;;;68.37;25.73;;;-7.50;99.90;;;;;;5089270;28;20028;-61
2022/12/15 06:14:57;;;;;;;75.20;27.13;;;-7.50;99.90;;;;;;5105155;28;20023;-61
2022/12/15 06:17:23;;;;;;;60.20;24.83;;;-7.50;99.90;;;;;;5087386;28;20024;-60
2022/12/15 06:19:49;;;;;;;71.10;24.20;;;-7.40;99.90;;;;;;5106517;28;20038;-61
2022/12/15 06:22:14;;;;;;;61.27;24.17;;;-7.40;99.90;;;;;;5108991;28;20372;-61
2022/12/15 06:24:40;;;;;;;58.47;20.53;;;-7.40;99.90;;;;;;5089189;28;20121;-61
2022/12/15 06:27:05;;;;;;;54.30;20.47;;;-7.40;99.90;;;;;;5088732;28;20020;-61
2022/12/15 06:29:31;;;;;;;51.93;20.40;;;-7.40;99.90;;;;;;5106096;28;20633;-61
2022/12/15 06:31:56;;;;;;;51.30;19.50;;;-7.30;99.90;;;;;;5108902;28;20031;-61
2022/12/15 06:34:22;;;;;;;50.10;19.60;;;-7.30;99.90;;;;;;5089785;28;20528;-62
2022/12/15 06:36:47;;;;;;;48.97;18.53;;;-7.30;99.90;;;;;;5108907;28;20031;-61
2022/12/15 06:39:14;;;;;;;64.97;24.27;;;-7.30;99.90;;;;;;5088821;28;20145;-61
2022/12/15 06:41:40;;;;;;;57.20;20.30;;;-7.30;99.90;;;;;;5108697;28;20073;-61
2022/12/15 06:44:06;;;;;;;48.37;19.50;;;-7.30;99.90;;;;;;5084622;28;20024;-61
2022/12/15 06:46:33;;;;;;;56.78;20.35;;;-7.30;99.90;;;;;;5086314;28;20677;-61
2022/12/15 06:48:59;;;;;;;43.67;18.77;;;-7.30;99.90;;;;;;5085891;28;20024;-61
2022/12/15 06:51:26;;;;;;;46.25;20.58;;;-7.20;99.90;;;;;;5107423;28;20028;-61
2022/12/15 06:53:52;;;;;;;48.97;19.67;;;-7.30;99.90;;;;;;5084290;28;20032;-60
2022/12/15 06:56:35;;;;;;;59.73;21.90;;;-7.30;99.90;;;;;;5103925;28;20027;-61
2022/12/15 06:59:02;;;;;;;64.37;22.87;;;-7.30;99.90;;;;;;5066722;28;20411;-61
2022/12/15 07:01:28;;;;;;;69.60;26.37;;;-7.30;99.90;;;;;;5107369;28;20020;-61
2022/12/15 07:03:54;;;;;;;69.33;25.97;;;-7.30;99.90;;;;;;5086832;28;20028;-58
2022/12/15 07:06:20;;;;;;;86.03;30.53;;;-7.30;99.90;;;;;;5083629;28;20051;-58
2022/12/15 07:08:52;;;;;;;78.37;29.27;;;-7.40;99.90;;;;;;5088408;28;20654;-59
2022/12/15 07:11:19;;;;;;;68.93;25.92;;;-7.50;99.90;;;;;;5070207;28;20089;-58
2022/12/15 07:13:49;;;;;;;61.73;23.50;;;-7.50;99.90;;;;;;5093444;28;20071;-59
2022/12/15 07:16:14;;;;;;;58.23;22.20;;;-7.50;99.90;;;;;;5108422;28;20038;-58
2022/12/15 07:18:40;;;;;;;60.57;20.93;;;-7.50;99.90;;;;;;5090634;28;20025;-59
2022/12/15 07:21:08;;;;;;;46.20;17.00;;;-7.50;99.90;;;;;;5089023;28;20025;-58
2022/12/15 07:23:35;;;;;;;47.87;16.97;;;-7.50;99.90;;;;;;5104643;28;20020;-58
2022/12/15 07:26:03;;;;;;;44.37;18.87;;;-7.50;99.90;;;;;;5088018;28;20528;-58
2022/12/15 07:28:29;;;;;;;45.23;17.77;;;-7.50;99.90;;;;;;5109831;28;20019;-59
2022/12/15 07:30:54;;;;;;;45.27;18.33;;;-7.40;99.90;;;;;;5088790;28;20039;-58
2022/12/15 07:33:20;;;;;;;48.73;17.50;;;-7.40;99.90;;;;;;5109607;28;20028;-60
2022/12/15 07:35:53;;;;;;;57.93;22.03;;;-7.40;99.90;;;;;;5087268;28;20495;-59
2022/12/15 07:38:18;;;;;;;59.87;21.47;;;-7.40;99.90;;;;;;5109384;28;20446;-59
2022/12/15 07:40:44;;;;;;;69.27;25.90;;;-7.30;99.90;;;;;;5088594;28;20036;-59
2022/12/15 07:43:10;;;;;;;61.53;25.70;;;-7.30;99.90;;;;;;5109383;28;20030;-59
2022/12/15 07:45:35;;;;;;;63.57;26.40;;;-7.30;99.90;;;;;;5087915;28;20035;-59
2022/12/15 07:48:00;;;;;;;60.27;20.37;;;-7.30;99.90;;;;;;5094813;28;20035;-59
2022/12/15 07:50:27;;;;;;;58.97;23.75;;;-7.30;99.90;;;;;;5108798;28;20028;-54
2022/12/15 07:52:53;;;;;;;51.30;20.97;;;-7.20;99.90;;;;;;5087744;28;20042;-58
2022/12/15 07:55:19;;;;;;;61.13;22.53;;;-7.20;99.90;;;;;;5088436;28;20484;-57
2022/12/15 07:57:46;;;;;;;61.78;27.58;;;-7.20;99.90;;;;;;5110915;28;20028;-58
2022/12/15 08:00:13;;;;;;;65.43;26.20;;;-7.20;99.90;;;;;;5089134;28;20028;-57
2022/12/15 08:02:40;;;;;;;54.13;23.27;;;-7.20;99.90;;;;;;5088565;28;20032;-58
2022/12/15 08:05:06;;;;;;;51.77;21.40;;;-7.10;99.90;;;;;;5097085;28;20119;-57
2022/12/15 08:07:32;;;;;;;62.30;23.33;;;-7.20;99.90;;;;;;5088274;28;20094;-57
2022/12/15 08:09:57;;;;;;;60.83;21.13;;;-7.20;99.90;;;;;;5110115;28;20119;-57
2022/12/15 08:12:23;;;;;;;51.20;19.73;;;-7.20;99.90;;;;;;5088330;28;20032;-58
2022/12/15 08:14:49;;;;;;;47.45;17.95;;;-7.20;99.90;;;;;;5109621;28;20032;-55
2022/12/15 08:17:14;;;;;;;53.53;19.97;;;-7.20;99.90;;;;;;5088465;28;20623;-55
2022/12/15 08:19:40;;;;;;;49.38;18.15;;;-7.10;99.90;;;;;;5109630;28;20027;-57
2022/12/15 08:22:05;;;;;;;51.70;19.40;;;-7.10;99.90;;;;;;5088629;28;20024;-57
2022/12/15 08:24:31;;;;;;;53.25;19.35;;;-7.10;99.90;;;;;;5102722;28;20071;-57
2022/12/15 08:26:57;;;;;;;45.63;17.13;;;-7.10;99.90;;;;;;5101797;28;20062;-57
2022/12/15 08:29:23;;;;;;;56.43;20.20;;;-7.10;99.90;;;;;;5089986;28;20039;-58
2022/12/15 08:31:48;;;;;;;54.90;21.67;;;-7.00;99.90;;;;;;5094898;28;20032;-59
2022/12/15 08:34:14;;;;;;;58.45;21.33;;;-7.00;99.90;;;;;;5109153;28;20032;-57
2022/12/15 08:36:39;;;;;;;59.03;21.10;;;-7.00;99.90;;;;;;5088411;28;20024;-57
2022/12/15 08:39:05;;;;;;;55.20;21.83;;;-7.00;99.90;;;;;;5109122;28;20030;-58
2022/12/15 08:41:31;;;;;;;51.23;19.67;;;-6.90;99.90;;;;;;5098242;28;20392;-57
2022/12/15 08:43:59;;;;;;;57.33;22.17;;;-6.80;99.90;;;;;;5090052;28;20055;-57
2022/12/15 08:46:27;;;;;;;60.20;22.92;;;-6.80;99.90;;;;;;5107287;28;20031;-57
2022/12/15 08:48:53;;;;;;;52.88;22.80;;;-6.70;99.90;;;;;;5089585;28;20031;-58
2022/12/15 08:51:20;;;;;;;56.47;22.45;;;-6.60;99.90;;;;;;5107016;28;20028;-58
2022/12/15 08:53:46;;;;;;;59.63;23.05;;;-6.50;99.90;;;;;;5089480;28;20481;-57
2022/12/15 08:56:17;;;;;;;57.67;22.13;;;-6.40;99.90;;;;;;5107088;28;20460;-57
2022/12/15 08:58:45;;;;;;;60.10;21.58;;;-6.40;99.90;;;;;;5109728;28;20034;-57
2022/12/15 09:01:13;;;;;;;65.93;24.15;;;-6.20;99.90;;;;;;5094674;28;20484;-57
2022/12/15 09:03:39;;;;;;;63.92;23.98;;;-6.10;99.90;;;;;;5109300;28;20038;-58
2022/12/15 09:06:07;;;;;;;59.28;22.52;;;-6.10;99.90;;;;;;5088405;28;20019;-59
2022/12/15 09:08:33;;;;;;;60.47;23.75;;;-6.00;99.90;;;;;;5109363;28;20475;-59
2022/12/15 09:11:00;;;;;;;57.42;24.83;;;-5.90;99.90;;;;;;5093237;28;20034;-59
2022/12/15 09:13:25;;;;;;;63.28;26.05;;;-5.80;99.90;;;;;;5109357;28;20028;-59
2022/12/15 09:15:58;;;;;;;59.88;24.73;;;-5.80;99.90;;;;;;5092092;28;20585;-58
2022/12/15 09:18:23;;;;;;;64.05;23.38;;;-5.70;99.90;;;;;;5109132;28;20062;-58
2022/12/15 09:20:49;;;;;;;62.03;22.63;;;-5.60;99.90;;;;;;5091938;28;20063;-59
2022/12/15 09:23:14;;;;;;;52.15;22.25;;;-5.60;99.90;;;;;;5107759;28;20395;-59
2022/12/15 09:25:40;;;;;;;48.67;21.85;;;-5.50;99.90;;;;;;5089647;28;20040;-59
2022/12/15 09:28:05;;;;;;;58.80;24.88;;;-5.40;99.90;;;;;;5109389;28;20043;-59
2022/12/15 09:30:31;;;;;;;66.43;25.52;;;-5.40;99.90;;;;;;5089087;28;20032;-58
2022/12/15 09:32:56;;;;;;;54.83;22.55;;;-5.40;99.90;;;;;;5109142;28;20068;-58
2022/12/15 09:35:22;;;;;;;58.22;24.15;;;-5.30;99.90;;;;;;5087540;28;20111;-58
2022/12/15 09:37:48;;;;;;;60.05;25.92;;;-5.20;99.90;;;;;;5109072;28;20036;-59
2022/12/15 09:40:14;;;;;;;62.83;25.60;;;-5.20;99.90;;;;;;5088892;28;20032;-58
2022/12/15 09:42:39;;;;;;;57.15;24.65;;;-5.20;99.90;;;;;;5106709;28;20061;-59
2022/12/15 09:45:16;;;;;;;54.97;24.20;;;-5.10;99.90;;;;;;5089070;28;20064;-59
2022/12/15 09:47:55;;;;;;;63.83;22.98;;;-5.10;99.90;;;;;;5086999;28;20032;-59
2022/12/15 09:50:28;;;;;;;72.40;25.27;;;-5.00;99.90;;;;;;5067160;28;20032;-58
2022/12/15 09:52:59;;;;;;;59.50;26.73;;;-5.00;99.90;;;;;;5109025;28;20554;-59
2022/12/15 09:55:28;;;;;;;61.58;23.15;;;-4.90;99.90;;;;;;5068208;28;20060;-58
2022/12/15 09:57:54;;;;;;;52.65;22.52;;;-4.90;99.90;;;;;;5108940;28;20488;-59
2022/12/15 10:00:43;;;;;;;58.50;24.10;;;-4.90;99.90;;;;;;5087145;28;20028;-58
2022/12/15 10:03:22;;;;;;;57.65;23.10;;;-4.80;99.90;;;;;;5108774;28;20494;-59
2022/12/15 10:06:07;;;;;;;68.45;25.35;;;-4.80;99.90;;;;;;5080950;28;20111;-59
2022/12/15 10:09:01;;;;;;;60.72;24.30;;;-4.70;99.90;;;;;;5068130;28;20090;-59
2022/12/15 10:11:45;;;;;;;57.00;23.75;;;-4.70;99.90;;;;;;5081862;28;20078;-59
2022/12/15 10:14:29;;;;;;;65.80;25.67;;;-4.60;99.90;;;;;;5068126;28;20029;-59
2022/12/15 10:17:10;;;;;;;59.35;26.45;;;-4.50;99.90;;;;;;5091865;28;20043;-58
2022/12/15 10:19:54;;;;;;;61.30;26.80;;;-4.50;99.90;;;;;;5067969;28;20055;-58
2022/12/15 10:22:25;;;;;;;58.03;24.02;;;-4.50;99.90;;;;;;5083625;28;20028;-58
2022/12/15 10:24:52;;;;;;;62.45;28.15;;;-4.50;99.90;;;;;;5098728;28;20048;-59
2022/12/15 10:27:17;;;;;;;55.13;25.13;;;-4.40;99.90;;;;;;5087766;28;20036;-58
2022/12/15 10:29:54;;;;;;;55.60;23.70;;;-4.40;99.90;;;;;;5107942;28;20111;-59
2022/12/15 10:33:10;;;;;;;55.10;22.73;;;-4.40;99.90;;;;;;5083121;28;20039;-58
2022/12/15 10:35:38;;;;;;;61.90;25.30;;;-4.40;99.90;;;;;;5067274;28;20040;-59
2022/12/15 10:38:13;;;;;;;59.38;25.42;;;-4.40;99.90;;;;;;5111328;28;20399;-59
2022/12/15 10:40:58;;;;;;;60.22;26.48;;;-4.40;99.90;;;;;;5075744;28;20547;-59
2022/12/15 10:43:34;;;;;;;58.20;27.98;;;-4.40;99.90;;;;;;5112306;28;20376;-59
2022/12/15 10:46:02;;;;;;;59.45;25.50;;;-4.40;99.90;;;;;;5081557;28;20033;-59
2022/12/15 10:48:27;;;;;;;52.78;21.83;;;-4.40;99.90;;;;;;5112038;28;20023;-59
2022/12/15 10:51:26;;;;;;;56.53;23.05;;;-4.40;99.90;;;;;;5095542;28;20020;-59
2022/12/15 10:54:13;;;;;;;54.38;23.35;;;-4.40;99.90;;;;;;5090922;28;20160;-59
2022/12/15 10:56:52;;;;;;;62.33;25.08;;;-4.40;99.90;;;;;;5091585;28;20044;-59
2022/12/15 10:59:27;;;;;;;48.28;24.73;;;-4.30;99.90;;;;;;5071236;28;20481;-58
2022/12/15 11:01:53;;;;;;;56.30;24.40;;;-4.30;99.90;;;;;;5096059;28;20024;-59
2022/12/15 11:04:26;;;;;;;51.05;23.60;;;-4.30;99.90;;;;;;5111156;28;20322;-59
2022/12/15 11:06:56;;;;;;;59.80;26.20;;;-4.20;99.90;;;;;;5079534;28;20092;-59
2022/12/15 11:09:33;;;;;;;54.00;23.52;;;-4.20;99.90;;;;;;5071299;28;20175;-59
2022/12/15 11:14:50;;;;;;;50.88;22.23;;;-4.20;99.90;;;;;;5071233;28;20055;-57
2022/12/15 11:17:21;;;;;;;54.00;24.00;;;-4.10;99.90;;;;;;5085850;28;20503;-56
2022/12/15 11:19:59;;;;;;;47.50;21.65;;;-4.00;99.90;;;;;;5071038;28;20093;-57
2022/12/15 11:22:59;;;;;;;52.88;22.02;;;-3.80;99.90;;;;;;5086964;28;20449;-58
2022/12/15 11:25:40;;;;;;;45.35;20.05;;;-3.70;99.90;;;;;;5096780;28;20410;-56
2022/12/15 11:28:17;;;;;;;51.00;22.13;;;-3.50;99.90;;;;;;5111447;28;20055;-58
2022/12/15 11:31:10;;;;;;;48.08;21.95;;;-3.40;99.90;;;;;;5075938;28;20144;-58
2022/12/15 11:33:36;;;;;;;44.10;20.15;;;-3.40;99.90;;;;;;5103016;28;20043;-57
2022/12/15 11:36:19;;;;;;;45.33;19.10;;;-3.40;99.90;;;;;;5095674;28;20035;-57
2022/12/15 11:38:53;;;;;;;45.28;19.17;;;-3.40;99.90;;;;;;5111270;28;20034;-58
2022/12/15 11:41:50;;;;;;;50.88;22.38;;;-3.40;99.90;;;;;;5086027;28;20034;-57
2022/12/15 11:44:23;;;;;;;50.22;21.50;;;-3.30;99.90;;;;;;5070782;28;20039;-58
2022/12/15 11:47:03;;;;;;;46.90;22.50;;;-3.30;99.90;;;;;;5081373;28;20480;-57
2022/12/15 11:49:47;;;;;;;55.33;23.75;;;-3.30;99.90;;;;;;5068428;28;20063;-57
2022/12/15 11:52:23;;;;;;;51.95;24.35;;;-3.30;99.90;;;;;;5084771;28;20024;-58
2022/12/15 11:54:53;;;;;;;;;;;-3.30;99.90;;;;;;5070855;28;20038;-56
2022/12/15 11:57:48;;;;;;;46.58;19.58;;;-3.30;99.90;;;;;;5090259;28;19916;-58
2022/12/15 12:00:19;;;;;;;51.05;23.70;;;-3.30;99.90;;;;;;5070132;28;20021;-57
2022/12/15 12:02:51;;;;;;;52.97;22.90;;;-3.20;99.90;;;;;;5070097;28;20080;-56
2022/12/15 12:05:34;;;;;;;54.65;22.88;;;-3.20;99.90;;;;;;5077059;28;20088;-58
2022/12/15 12:08:31;;;;;;;49.25;18.83;;;-3.20;99.90;;;;;;5109539;28;20039;-55
2022/12/15 12:11:11;;;;;;;43.30;17.30;;;-3.30;99.90;;;;;;5078873;28;20046;-58
2022/12/15 12:14:02;;;;;;;43.33;18.98;;;-3.20;99.90;;;;;;5110655;28;20027;-57
2022/12/15 12:16:38;;;;;;;44.90;17.52;;;-3.30;99.90;;;;;;5087429;28;20124;-55
2022/12/15 12:19:09;;;;;;;41.45;17.52;;;-3.30;99.90;;;;;;5069979;28;20480;-56
2022/12/15 12:21:49;;;;;;;45.45;21.02;;;-3.30;99.90;;;;;;5089732;28;20030;-56
2022/12/15 12:24:32;;;;;;;52.25;22.23;;;-3.20;99.90;;;;;;5077844;28;20056;-58
2022/12/15 12:27:04;;;;;;;43.55;18.65;;;-3.20;99.90;;;;;;5108449;28;20115;-56
2022/12/15 12:29:36;;;;;;;41.58;17.73;;;-3.20;99.90;;;;;;5069632;28;20058;-58
2022/12/15 12:32:28;;;;;;;46.65;18.98;;;-3.20;99.90;;;;;;5093524;28;20538;-57
2022/12/15 12:35:42;;;;;;;40.88;18.05;;;-3.10;99.90;;;;;;5069704;28;20039;-58
2022/12/15 12:38:11;;;;;;;49.75;21.17;;;-3.10;99.90;;;;;;5061248;28;20387;-57
2022/12/15 12:40:45;;;;;;;52.95;22.50;;;-3.10;99.90;;;;;;5086279;28;20429;-55
2022/12/15 12:43:38;;;;;;;59.63;27.30;;;-3.10;99.90;;;;;;5110224;28;20027;-55
2022/12/15 12:46:27;;;;;;;48.65;22.67;;;-3.10;99.90;;;;;;5071685;28;20379;-59
2022/12/15 12:49:08;;;;;;;45.78;23.05;;;-3.00;99.90;;;;;;5109854;28;20026;-55
2022/12/15 12:51:36;;;;;;;48.42;22.63;;;-3.00;99.90;;;;;;5088464;28;20027;-57
2022/12/15 12:54:02;;;;;;;46.75;20.77;;;-3.00;99.90;;;;;;5089477;28;20061;-58
2022/12/15 12:56:40;;;;;;;49.15;23.05;;;-3.00;99.90;;;;;;5107243;28;20483;-56
2022/12/15 12:59:28;;;;;;;46.35;21.85;;;-3.00;99.90;;;;;;5067614;28;20447;-58
2022/12/15 13:02:29;;;;;;;50.17;21.25;;;-2.90;99.90;;;;;;5092961;28;20365;-57
2022/12/15 13:05:21;;;;;;;43.55;21.08;;;-2.90;99.90;;;;;;5071970;28;20108;-57
2022/12/15 13:08:06;;;;;;;39.67;18.42;;;-2.90;99.90;;;;;;5069337;28;20029;-57
2022/12/15 13:10:46;;;;;;;48.88;21.10;;;-2.80;99.90;;;;;;5070963;28;20039;-55
2022/12/15 13:13:17;;;;;;;49.13;22.38;;;-2.80;99.90;;;;;;5109683;28;20035;-57
2022/12/15 13:15:48;;;;;;;50.35;24.77;;;-2.70;99.90;;;;;;5074273;28;20297;-58
2022/12/15 13:18:20;;;;;;;53.65;24.27;;;-2.70;99.90;;;;;;5108183;28;20032;-57
2022/12/15 13:20:48;;;;;;;46.78;21.85;;;-2.60;99.90;;;;;;5090921;28;20035;-58
2022/12/15 13:23:22;;;;;;;51.03;22.38;;;-2.60;99.90;;;;;;5109453;28;20038;-57
2022/12/15 13:25:57;;;;;;;43.60;22.02;;;-2.50;99.90;;;;;;5074966;28;20100;-58
2022/12/15 13:28:37;;;;;;;43.75;20.35;;;-2.50;99.90;;;;;;5109010;28;20048;-57
2022/12/15 13:31:15;;;;;;;43.75;20.55;;;-2.40;99.90;;;;;;5079429;28;20103;-55
2022/12/15 13:33:49;;;;;;;37.97;16.65;;;-2.30;99.90;;;;;;5088976;28;20035;-57
2022/12/15 13:36:42;;;;;;;43.13;18.80;;;-2.30;99.90;;;;;;5082299;28;20138;-54
2022/12/15 13:39:11;;;;;;;46.67;19.17;;;-2.30;99.90;;;;;;5073366;28;20024;-56
2022/12/15 13:42:03;;;;;;;46.88;19.20;;;-2.30;99.90;;;;;;5109083;28;20020;-57
2022/12/15 13:44:34;;;;;;;48.25;18.40;;;-2.30;99.90;;;;;;5078808;28;20058;-57
2022/12/15 13:47:15;;;;;;;44.58;19.85;;;-2.30;99.90;;;;;;5109214;28;20024;-58
2022/12/15 13:49:59;;;;;;;42.92;19.50;;;-2.40;99.90;;;;;;5096086;28;20445;-54
2022/12/15 13:52:37;;;;;;;43.95;19.08;;;-2.40;99.90;;;;;;5082323;28;20024;-57
2022/12/15 13:55:14;;;;;;;47.20;20.80;;;-2.40;99.90;;;;;;5073049;28;20046;-56
2022/12/15 13:57:53;;;;;;;44.97;18.33;;;-2.40;99.90;;;;;;5084171;28;20626;-59
2022/12/15 14:00:18;;;;;;;49.30;18.83;;;-2.40;99.90;;;;;;5092183;28;20032;-56
2022/12/15 14:02:44;;;;;;;51.28;19.38;;;-2.50;99.90;;;;;;5099611;28;20039;-56
2022/12/15 14:05:13;;;;;;;54.00;20.60;;;-2.60;99.90;;;;;;5089672;28;20040;-57
2022/12/15 14:07:42;;;;;;;38.92;17.52;;;-2.60;99.90;;;;;;5090382;28;20077;-57
2022/12/15 14:10:21;;;;;;;49.58;20.45;;;-2.70;99.90;;;;;;5087332;28;20198;-58
2022/12/15 14:12:49;;;;;;;40.85;17.63;;;-2.80;99.90;;;;;;5093070;28;20476;-53
2022/12/15 14:15:16;;;;;;;43.97;18.25;;;-2.90;99.90;;;;;;5087278;28;20518;-57
2022/12/15 14:17:49;;;;;;;51.42;18.52;;;-2.90;99.90;;;;;;5089824;28;20439;-57
2022/12/15 14:20:24;;;;;;;41.08;17.50;;;-3.00;99.90;;;;;;5087316;28;20067;-56
2022/12/15 14:22:51;;;;;;;34.92;13.02;;;-3.10;99.90;;;;;;5091702;28;20090;-55
2022/12/15 14:25:22;;;;;;;43.05;16.52;;;-3.10;99.90;;;;;;5091043;28;20056;-58
2022/12/15 14:27:48;;;;;;;49.67;17.85;;;-3.20;99.90;;;;;;5090721;28;20597;-57
2022/12/15 14:30:28;;;;;;;39.90;15.25;;;-3.20;99.90;;;;;;5089777;28;20052;-57
2022/12/15 14:32:53;;;;;;;42.03;17.02;;;-3.30;99.90;;;;;;5096870;28;20028;-53
2022/12/15 14:35:27;;;;;;;52.55;18.10;;;-3.40;99.90;;;;;;5095581;28;20035;-56
2022/12/15 14:37:55;;;;;;;46.90;16.90;;;-3.50;99.90;;;;;;5099719;28;20035;-58
2022/12/15 14:40:21;;;;;;;29.45;13.13;;;-3.60;99.90;;;;;;5108430;28;20468;-56
2022/12/15 14:42:47;;;;;;;35.55;14.25;;;-3.60;99.90;;;;;;5099505;28;20107;-58
2022/12/15 14:45:29;;;;;;;50.20;18.85;;;-3.70;99.90;;;;;;5109536;28;20110;-57
2022/12/15 14:48:01;;;;;;;45.15;17.50;;;-3.70;99.90;;;;;;5112398;28;20024;-52
2022/12/15 14:50:27;;;;;;;47.33;17.70;;;-3.80;99.90;;;;;;5093688;28;20016;-57
2022/12/15 14:52:59;;;;;;;43.67;15.80;;;-3.90;99.90;;;;;;5112436;28;20026;-58
2022/12/15 14:55:31;;;;;;;36.30;14.55;;;-3.90;99.90;;;;;;5077183;28;20034;-58
2022/12/15 14:57:56;;;;;;;39.22;14.40;;;-4.00;99.90;;;;;;5112273;28;20027;-57
2022/12/15 15:00:47;;;;;;;48.97;16.63;;;-4.10;99.90;;;;;;5093028;28;20028;-57
2022/12/15 15:03:20;;;;;;;57.85;19.55;;;-4.20;99.90;;;;;;5101955;28;20685;-57
2022/12/15 15:05:54;;;;;;;44.40;16.73;;;-4.30;99.90;;;;;;5081069;28;20019;-58
2022/12/15 15:08:35;;;;;;;44.78;17.10;;;-4.30;99.90;;;;;;5071353;28;20029;-57
2022/12/15 15:11:34;;;;;;;58.28;21.85;;;-4.40;99.90;;;;;;5087130;28;20020;-58
2022/12/15 15:14:04;;;;;;;51.60;17.85;;;-4.50;99.90;;;;;;5071391;28;20029;-57
2022/12/15 15:16:30;;;;;;;49.08;18.25;;;-4.50;99.90;;;;;;5082375;28;20070;-57